Time;durP1;ratioP1;P1;durP2;ratioP2;P2;SDS_P1;SDS_P2;PMS_P1;PMS_P2;Temp;Humidity;BMP_temperature;BMP_pressure;BME280_temperature;BME280_humidity;BME280_pressure;Samples;Min_cycle;Max_cycle;Signal;HPM_P1;HPM_P2
2022/09/29 03:53:12;;;;;;;2.43;2.23;;;2.50;96.30;;;;;;5924722;22;20579;-80
2022/09/29 03:55:38;;;;;;;2.00;1.70;;;2.50;96.30;;;;;;5010540;28;20822;-79
2022/09/29 03:58:04;;;;;;;2.57;1.93;;;2.50;96.30;;;;;;5013303;28;20166;-78
2022/09/29 04:00:30;;;;;;;2.97;2.40;;;2.50;96.30;;;;;;4995900;28;20601;-79
2022/09/29 04:02:55;;;;;;;2.30;2.03;;;2.50;96.30;;;;;;5013215;28;20243;-77
2022/09/29 04:05:21;;;;;;;3.47;2.50;;;2.40;96.30;;;;;;5012387;28;20302;-79
2022/09/29 04:07:47;;;;;;;2.60;2.33;;;2.50;96.30;;;;;;5013542;28;20182;-79
2022/09/29 04:10:13;;;;;;;3.20;2.37;;;2.50;96.30;;;;;;5013331;28;20176;-79
2022/09/29 04:12:39;;;;;;;2.90;2.53;;;2.50;96.30;;;;;;5012862;28;20640;-78
2022/09/29 04:15:05;;;;;;;2.73;2.43;;;2.40;96.30;;;;;;4995485;28;20452;-79
2022/09/29 04:17:31;;;;;;;2.90;2.60;;;2.40;96.30;;;;;;5012996;28;20181;-78
2022/09/29 04:19:56;;;;;;;4.03;2.30;;;2.30;96.30;;;;;;4995411;28;20428;-79
2022/09/29 04:22:22;;;;;;;4.60;3.60;;;2.30;96.30;;;;;;5007299;28;20244;-78
2022/09/29 04:24:48;;;;;;;3.90;3.47;;;2.30;96.30;;;;;;4981523;28;20196;-78
2022/09/29 04:27:14;;;;;;;4.97;3.97;;;2.30;96.30;;;;;;5013189;28;20181;-80
2022/09/29 04:29:40;;;;;;;7.70;6.10;;;2.20;96.30;;;;;;5012834;28;20610;-79
2022/09/29 04:32:06;;;;;;;3.67;3.37;;;2.10;96.30;;;;;;5011658;28;20507;-78
2022/09/29 04:34:32;;;;;;;2.67;2.47;;;2.10;96.30;;;;;;5001503;28;20201;-79
2022/09/29 04:36:57;;;;;;;3.40;3.00;;;2.20;96.30;;;;;;4975749;28;20439;-79
2022/09/29 04:39:23;;;;;;;3.60;3.10;;;2.20;96.30;;;;;;4992191;28;20412;-80
2022/09/29 04:41:49;;;;;;;4.80;3.40;;;2.30;96.30;;;;;;4989331;28;20216;-79
2022/09/29 04:44:14;;;;;;;3.77;3.27;;;2.20;96.30;;;;;;5018089;28;20188;-81
2022/09/29 04:46:40;;;;;;;4.40;3.10;;;2.10;96.30;;;;;;5017952;28;20170;-81
2022/09/29 04:49:05;;;;;;;3.17;2.50;;;2.10;96.30;;;;;;5012448;28;20170;-80
2022/09/29 04:51:31;;;;;;;5.70;2.97;;;2.10;96.30;;;;;;5003700;28;20243;-78
2022/09/29 04:53:58;;;;;;;4.83;2.80;;;2.10;96.30;;;;;;5000915;28;20686;-78
2022/09/29 04:56:23;;;;;;;3.93;2.77;;;2.10;96.30;;;;;;4997475;28;20254;-76
2022/09/29 04:58:49;;;;;;;4.53;3.40;;;2.10;96.30;;;;;;4985708;28;20606;-76
2022/09/29 05:01:15;;;;;;;5.90;4.77;;;2.20;96.30;;;;;;4985526;28;20232;-76
2022/09/29 10:01:21;;;;;;;1.90;1.27;;;14.40;96.30;;;;;;5322502;23;21186;-77
2022/09/29 10:03:46;;;;;;;2.67;1.30;;;14.20;96.30;;;;;;4991476;28;20436;-78
2022/09/29 10:06:12;;;;;;;5.47;1.43;;;14.10;96.30;;;;;;4980923;28;20257;-77
2022/09/29 10:08:41;;;;;;;6.63;1.50;;;14.00;96.30;;;;;;4972609;28;20185;-77
2022/09/29 10:11:29;;;;;;;4.70;1.60;;;13.80;96.30;;;;;;4973572;28;20649;-77
2022/09/29 10:14:08;;;;;;;2.27;1.40;;;13.50;96.30;;;;;;4987387;28;20482;-77
2022/09/29 10:16:45;;;;;;;2.07;1.60;;;13.20;96.30;;;;;;4971664;28;20417;-77
2022/09/29 10:19:11;;;;;;;2.87;1.50;;;13.00;96.30;;;;;;4972812;28;20424;-77
2022/09/29 10:21:41;;;;;;;3.57;1.43;;;12.70;96.30;;;;;;4975278;28;20979;-77
2022/09/29 10:24:26;;;;;;;13.43;1.80;;;12.60;96.30;;;;;;4973783;28;20205;-77
2022/09/29 10:26:55;;;;;;;6.57;1.60;;;12.50;96.30;;;;;;4992456;28;20527;-76
2022/09/29 10:29:36;;;;;;;3.87;1.70;;;12.60;96.30;;;;;;4985511;28;20517;-77
2022/09/29 10:32:20;;;;;;;1.60;1.50;;;12.60;96.30;;;;;;4968824;28;20445;-78
2022/09/29 10:34:50;;;;;;;4.37;1.40;;;12.40;96.30;;;;;;4969579;28;20537;-77
2022/09/29 10:37:22;;;;;;;13.93;1.77;;;12.70;96.30;;;;;;4969496;28;20413;-77
2022/09/29 10:39:48;;;;;;;2.80;1.87;;;12.70;96.30;;;;;;4972443;28;20440;-77
2022/09/29 10:42:35;;;;;;;2.80;1.70;;;12.80;96.30;;;;;;4980308;28;20512;-77
2022/09/29 10:45:17;;;;;;;1.93;1.60;;;12.70;96.30;;;;;;4972572;28;20522;-77
2022/09/29 10:48:12;;;;;;;1.93;1.47;;;12.80;96.30;;;;;;4972434;28;20418;-77
2022/09/29 10:50:51;;;;;;;2.30;1.63;;;12.70;96.30;;;;;;4976792;28;20499;-77
2022/09/29 10:53:33;;;;;;;2.57;1.70;;;12.70;96.30;;;;;;4951559;28;20468;-77
2022/09/29 10:56:01;;;;;;;1.93;1.50;;;12.70;96.30;;;;;;4981618;28;20452;-75
2022/09/29 10:58:29;;;;;;;2.03;1.10;;;12.60;96.30;;;;;;4965121;28;20422;-76
2022/09/29 11:01:17;;;;;;;5.03;1.60;;;12.80;96.30;;;;;;4984664;28;20516;-76
2022/09/29 11:04:00;;;;;;;3.70;1.93;;;12.80;96.30;;;;;;4970974;28;20504;-76
2022/09/29 11:06:39;;;;;;;6.27;2.07;;;13.20;96.30;;;;;;4981359;28;20461;-76
2022/09/29 11:09:17;;;;;;;2.70;1.50;;;13.60;96.30;;;;;;4971603;28;20810;-77
2022/09/29 11:11:48;;;;;;;3.00;1.40;;;13.70;96.30;;;;;;4970666;28;20416;-76
2022/09/29 11:14:30;;;;;;;2.80;1.10;;;13.60;96.30;;;;;;4972268;28;20438;-76
2022/09/29 11:17:01;;;;;;;3.00;1.90;;;13.60;96.30;;;;;;4986207;28;20408;-75
2022/09/29 11:19:29;;;;;;;4.53;1.90;;;14.30;96.30;;;;;;4981125;28;20414;-75
2022/09/29 11:22:30;;;;;;;1.63;1.30;;;14.90;96.30;;;;;;4976571;28;20460;-75
2022/09/29 11:25:04;;;;;;;2.33;1.33;;;14.80;96.30;;;;;;4913602;29;20452;-75
2022/09/29 11:28:07;;;;;;;1.47;1.30;;;15.00;96.30;;;;;;4973529;28;20464;-83
2022/09/29 11:30:49;;;;;;;2.67;1.80;;;14.50;96.30;;;;;;4980850;28;20416;-77
2022/09/29 11:34:08;;;;;;;3.53;1.30;;;14.20;96.30;;;;;;4986714;28;20445;-76
2022/09/29 11:36:52;;;;;;;4.47;1.30;;;14.10;96.30;;;;;;4924438;28;20824;-79
2022/09/29 11:39:33;;;;;;;20.40;1.40;;;13.80;96.30;;;;;;4975287;28;20404;-75
2022/09/29 11:42:07;;;;;;;1.83;1.50;;;13.90;96.30;;;;;;4982115;28;20984;-74
2022/09/29 11:44:51;;;;;;;2.60;1.17;;;13.70;96.30;;;;;;4970578;28;20449;-79
2022/09/29 11:47:31;;;;;;;5.13;1.60;;;13.50;96.30;;;;;;4974161;28;20594;-79
2022/09/29 11:50:25;;;;;;;2.60;1.60;;;13.30;96.30;;;;;;4959228;28;20413;-76
2022/09/29 11:53:18;;;;;;;5.50;2.20;;;13.80;96.30;;;;;;4966296;28;20417;-76
2022/09/29 11:55:52;;;;;;;1.80;1.57;;;14.40;96.30;;;;;;4982084;28;20427;-74
2022/09/29 11:58:40;;;;;;;2.53;1.30;;;14.60;96.30;;;;;;4979408;28;20898;-75
2022/09/29 12:01:22;;;;;;;4.33;1.80;;;14.60;96.30;;;;;;4978845;28;20840;-76
2022/09/29 12:03:59;;;;;;;1.63;1.23;;;14.60;96.30;;;;;;4970332;28;20445;-76
2022/09/29 12:06:33;;;;;;;5.37;1.60;;;14.60;96.30;;;;;;4983132;28;20409;-75
2022/09/29 12:09:17;;;;;;;3.30;1.40;;;14.20;96.30;;;;;;4967615;28;20423;-74
2022/09/29 12:12:12;;;;;;;2.03;1.53;;;13.80;96.30;;;;;;4983422;28;20404;-75
2022/09/29 12:15:01;;;;;;;3.10;1.27;;;14.20;96.30;;;;;;4984584;28;20436;-76
2022/09/29 12:17:30;;;;;;;6.50;1.40;;;14.40;96.30;;;;;;4990798;28;20812;-76
2022/09/29 12:20:19;;;;;;;3.00;1.30;;;14.40;96.30;;;;;;4977724;28;20795;-74
2022/09/29 12:22:55;;;;;;;6.07;1.80;;;14.30;96.30;;;;;;4974432;28;20437;-81
2022/09/29 12:25:26;;;;;;;1.13;1.03;;;14.20;96.30;;;;;;4980147;28;20413;-75
2022/09/29 12:28:13;;;;;;;2.30;1.07;;;14.10;96.30;;;;;;4974225;28;20988;-75
2022/09/29 12:31:16;;;;;;;5.30;1.47;;;14.00;96.30;;;;;;4972376;28;20424;-77
2022/09/29 12:33:52;;;;;;;2.43;1.20;;;14.10;96.30;;;;;;4993501;28;20586;-74
2022/09/29 12:36:44;;;;;;;1.97;1.20;;;14.20;96.30;;;;;;4993582;28;20389;-75
2022/09/29 12:40:00;;;;;;;1.97;1.30;;;14.70;96.30;;;;;;4993590;28;20395;-74
2022/09/29 12:42:45;;;;;;;8.53;1.40;;;14.80;96.30;;;;;;4907622;28;21031;-74
2022/09/29 12:45:47;;;;;;;5.17;1.33;;;15.40;96.30;;;;;;4993170;28;20389;-76
2022/09/29 12:48:38;;;;;;;1.77;1.03;;;15.30;96.30;;;;;;4969275;28;21786;-77
2022/09/29 12:51:25;;;;;;;2.87;1.40;;;14.90;96.30;;;;;;4955670;28;20425;-82
2022/09/29 12:54:09;;;;;;;2.87;1.47;;;14.60;96.30;;;;;;4955467;28;20438;-84
2022/09/29 12:57:01;;;;;;;2.10;1.33;;;14.40;96.30;;;;;;4956290;28;20768;-87
2022/09/29 12:59:54;;;;;;;8.83;1.50;;;14.30;96.30;;;;;;4952295;28;20545;-76
2022/09/29 13:02:41;;;;;;;2.10;1.40;;;14.20;96.30;;;;;;4973096;28;20457;-77
2022/09/29 13:05:18;;;;;;;4.17;1.57;;;14.40;96.30;;;;;;4973062;28;21013;-75
2022/09/29 13:07:52;;;;;;;1.60;1.43;;;14.30;96.30;;;;;;4953275;29;20406;-79
2022/09/29 13:10:26;;;;;;;2.37;1.10;;;14.20;96.30;;;;;;4953578;29;20417;-75
2022/09/29 13:13:07;;;;;;;5.07;1.40;;;14.40;96.30;;;;;;4953320;29;20406;-76
2022/09/29 13:16:03;;;;;;;3.00;1.30;;;14.70;96.30;;;;;;4967124;28;20925;-76
2022/09/29 13:18:28;;;;;;;3.53;1.30;;;14.60;96.30;;;;;;4972335;28;20492;-76
2022/09/29 13:21:15;;;;;;;1.90;1.33;;;14.50;96.30;;;;;;4973413;28;20853;-75
2022/09/29 13:24:18;;;;;;;3.97;1.30;;;14.60;96.30;;;;;;4972776;28;20205;-76
2022/09/29 13:27:26;;;;;;;3.80;1.20;;;15.00;96.30;;;;;;4973057;28;20406;-76
2022/09/29 13:30:09;;;;;;;1.60;1.10;;;15.50;96.30;;;;;;4894681;29;20417;-78
2022/09/29 13:32:46;;;;;;;1.60;1.20;;;15.80;96.30;;;;;;4970606;28;20413;-77
2022/09/29 13:35:18;;;;;;;2.10;1.33;;;15.70;96.30;;;;;;4956258;28;20952;-76
2022/09/29 13:38:01;;;;;;;3.70;1.40;;;15.70;96.30;;;;;;4973170;28;20406;-76
2022/09/29 13:40:29;;;;;;;6.57;1.70;;;15.50;96.30;;;;;;4973344;28;20410;-76
2022/09/29 13:42:59;;;;;;;3.70;1.50;;;15.20;96.30;;;;;;4972674;28;20512;-76
2022/09/29 13:45:25;;;;;;;1.93;1.23;;;14.80;96.30;;;;;;4973345;28;20484;-77
2022/09/29 13:47:57;;;;;;;4.67;1.40;;;14.50;96.30;;;;;;4972678;28;20556;-76
2022/09/29 13:50:39;;;;;;;1.83;1.13;;;14.80;96.30;;;;;;4973072;28;20193;-76
2022/09/29 13:53:32;;;;;;;9.10;1.20;;;14.90;96.30;;;;;;4972713;28;20437;-76
2022/09/29 13:56:00;;;;;;;1.83;1.17;;;15.40;96.30;;;;;;4972641;28;20890;-75
2022/09/29 13:58:32;;;;;;;4.07;1.33;;;15.00;96.30;;;;;;4972841;28;20414;-76
2022/09/29 14:01:00;;;;;;;3.03;1.37;;;14.90;96.30;;;;;;4972746;28;20437;-77
2022/09/29 14:03:33;;;;;;;1.20;1.10;;;14.30;96.30;;;;;;4972704;28;20461;-76
2022/09/29 14:06:06;;;;;;;8.00;3.00;;;14.10;96.30;;;;;;4957236;28;20542;-77
2022/09/29 14:08:45;;;;;;;5.40;1.50;;;13.70;96.30;;;;;;4975455;28;20468;-77
2022/09/29 14:11:50;;;;;;;5.20;1.23;;;13.50;96.30;;;;;;4973374;28;20412;-77
2022/09/29 14:14:53;;;;;;;2.17;1.00;;;13.30;96.30;;;;;;4917848;28;20442;-77
2022/09/29 14:17:32;;;;;;;6.47;1.60;;;13.30;96.30;;;;;;4956306;28;21016;-76
2022/09/29 14:20:17;;;;;;;2.03;1.40;;;13.40;96.30;;;;;;4956387;28;20424;-76
2022/09/29 14:22:42;;;;;;;5.77;1.23;;;13.30;96.30;;;;;;4973065;28;20449;-77
2022/09/29 14:25:11;;;;;;;1.97;1.30;;;13.30;96.30;;;;;;4972519;28;20930;-76
2022/09/29 14:27:57;;;;;;;3.03;1.43;;;13.30;96.30;;;;;;4978270;28;20170;-75
2022/09/29 14:30:34;;;;;;;3.50;1.23;;;13.30;96.30;;;;;;4974035;28;20421;-76
2022/09/29 14:33:31;;;;;;;4.43;1.03;;;13.30;96.30;;;;;;4986209;28;20454;-76
2022/09/29 14:35:59;;;;;;;2.30;1.10;;;13.40;96.30;;;;;;4966113;28;20425;-76
2022/09/29 14:38:42;;;;;;;1.77;0.87;;;13.40;96.30;;;;;;4961225;28;20418;-75
2022/09/29 14:41:09;;;;;;;3.60;1.60;;;13.30;96.30;;;;;;4974430;28;20432;-75
2022/09/29 14:43:43;;;;;;;3.30;1.27;;;13.20;96.30;;;;;;4975290;28;20471;-75
2022/09/29 14:52:22;;;;;;;4.57;1.20;;;13.20;96.30;;;;;;4956387;29;20539;-78
2022/09/29 14:54:53;;;;;;;3.67;1.37;;;13.20;96.30;;;;;;4957987;28;20825;-76
2022/09/29 14:57:55;;;;;;;4.00;1.40;;;13.10;96.30;;;;;;4975655;28;20413;-76
2022/09/29 15:00:28;;;;;;;3.63;1.00;;;12.90;96.30;;;;;;4975554;28;20437;-76
2022/09/29 15:02:55;;;;;;;5.20;1.80;;;12.80;96.30;;;;;;4974817;28;20469;-76
2022/09/29 15:05:32;;;;;;;5.33;1.60;;;12.70;96.30;;;;;;4974737;28;20533;-76
2022/09/29 15:08:00;;;;;;;2.10;1.10;;;12.60;96.30;;;;;;4975141;28;20686;-76
2022/09/29 15:10:37;;;;;;;2.47;1.23;;;12.50;96.30;;;;;;4975297;28;20418;-76
2022/09/29 15:13:29;;;;;;;2.33;1.43;;;12.40;96.30;;;;;;4974007;28;20421;-75
2022/09/29 15:15:57;;;;;;;2.87;1.30;;;12.40;96.30;;;;;;4956124;28;20429;-75
2022/09/29 15:18:41;;;;;;;2.17;1.20;;;12.30;96.30;;;;;;4971591;28;20417;-76
2022/09/29 15:21:29;;;;;;;2.40;1.30;;;12.20;96.30;;;;;;4955273;28;20482;-75
2022/09/29 15:24:21;;;;;;;1.37;1.23;;;12.00;96.30;;;;;;4970605;28;20449;-76
2022/09/29 15:26:47;;;;;;;3.27;1.20;;;11.70;96.30;;;;;;4970405;28;20421;-75
2022/09/29 15:29:17;;;;;;;1.90;1.37;;;11.60;96.30;;;;;;4974028;28;20410;-75
2022/09/29 15:31:44;;;;;;;1.33;0.90;;;11.60;96.30;;;;;;4974254;28;20206;-75
2022/09/29 15:34:22;;;;;;;4.10;1.20;;;11.50;96.30;;;;;;4974938;28;20437;-76
2022/09/29 15:36:52;;;;;;;1.97;1.23;;;11.30;96.30;;;;;;4970403;28;20461;-75
2022/09/29 15:39:29;;;;;;;2.63;1.30;;;11.30;96.30;;;;;;4974546;28;20456;-76
2022/09/29 15:42:24;;;;;;;3.37;2.63;;;11.10;96.30;;;;;;4974037;28;21025;-76
2022/09/29 15:44:58;;;;;;;6.30;4.47;;;11.00;96.30;;;;;;4955182;28;20458;-77
2022/09/29 15:47:34;;;;;;;5.23;2.33;;;10.80;96.30;;;;;;4974247;28;20430;-77
2022/09/29 15:50:11;;;;;;;3.17;2.00;;;10.60;96.30;;;;;;4974361;28;20423;-76
2022/09/29 15:52:37;;;;;;;3.57;2.10;;;10.30;96.30;;;;;;4974223;28;20488;-76
2022/09/29 15:55:04;;;;;;;3.23;1.60;;;10.20;96.30;;;;;;4974190;28;20930;-76
2022/09/29 15:57:56;;;;;;;3.47;1.70;;;10.00;96.30;;;;;;4974269;28;20209;-77
2022/09/29 16:00:22;;;;;;;5.23;1.60;;;10.00;96.30;;;;;;4973845;28;20445;-76
2022/09/29 16:02:54;;;;;;;1.93;1.23;;;10.00;96.30;;;;;;4973972;28;20453;-76
2022/09/29 16:05:24;;;;;;;2.03;1.47;;;9.90;96.30;;;;;;4958700;28;20183;-76
2022/09/29 16:07:58;;;;;;;2.00;1.37;;;9.80;96.30;;;;;;4956356;28;20430;-78
2022/09/29 16:10:28;;;;;;;3.90;1.77;;;9.60;96.30;;;;;;4973705;28;20414;-77
2022/09/29 16:13:02;;;;;;;3.80;1.43;;;9.50;96.30;;;;;;4975944;28;20778;-77
2022/09/29 16:15:34;;;;;;;2.10;0.87;;;9.50;96.30;;;;;;4978425;28;20968;-77
2022/09/29 16:18:06;;;;;;;1.30;1.00;;;9.40;96.30;;;;;;4960417;28;20480;-79
2022/09/29 16:20:33;;;;;;;1.70;0.97;;;9.30;96.30;;;;;;4994850;28;20908;-76
2022/09/29 16:23:24;;;;;;;1.10;0.80;;;9.20;96.30;;;;;;4982183;28;20461;-78
2022/09/29 16:26:13;;;;;;;2.23;1.27;;;9.10;96.30;;;;;;4971739;28;20414;-77
2022/09/29 16:28:58;;;;;;;1.50;1.20;;;9.10;96.30;;;;;;4970290;28;20464;-77
2022/09/29 16:31:26;;;;;;;2.17;1.30;;;9.10;96.30;;;;;;4970579;28;20464;-78
2022/09/29 16:33:55;;;;;;;7.10;1.93;;;9.00;96.30;;;;;;4973079;28;20457;-77
2022/09/29 16:36:26;;;;;;;2.87;2.33;;;9.00;96.30;;;;;;4972712;28;20406;-77
2022/09/29 16:38:53;;;;;;;5.57;2.20;;;8.90;96.30;;;;;;4972715;28;20413;-77
2022/09/29 16:41:36;;;;;;;5.77;3.53;;;8.80;96.30;;;;;;4970128;28;20918;-77
2022/09/29 16:44:09;;;;;;;6.53;3.70;;;8.70;96.30;;;;;;4970747;28;20441;-78
2022/09/29 16:46:43;;;;;;;5.23;3.67;;;8.60;96.30;;;;;;4973218;28;20444;-78
2022/09/29 16:49:42;;;;;;;4.90;3.40;;;8.60;96.30;;;;;;4972563;28;20917;-76
2022/09/29 16:52:16;;;;;;;4.83;4.13;;;8.60;96.30;;;;;;4945142;28;20424;-76
2022/09/29 16:54:44;;;;;;;7.23;4.70;;;8.50;96.30;;;;;;4972977;28;20448;-77
2022/09/29 16:57:33;;;;;;;7.60;5.20;;;8.40;96.30;;;;;;4957165;28;20426;-75
2022/09/29 17:00:11;;;;;;;10.13;6.73;;;8.30;96.30;;;;;;4974363;28;20405;-80
2022/09/29 17:02:36;;;;;;;3.73;2.70;;;8.20;96.30;;;;;;4975809;28;20456;-77
2022/09/29 17:05:03;;;;;;;3.30;3.00;;;8.30;96.30;;;;;;4971867;28;20817;-79
2022/09/29 17:07:30;;;;;;;10.07;7.63;;;8.30;96.30;;;;;;4971564;28;20174;-77
2022/09/29 17:09:58;;;;;;;17.50;5.97;;;8.20;96.30;;;;;;4945369;28;20432;-78
2022/09/29 17:12:25;;;;;;;3.33;2.73;;;8.10;96.30;;;;;;4964901;28;20418;-77
2022/09/29 17:14:51;;;;;;;9.10;4.97;;;8.10;96.30;;;;;;4955953;28;20473;-77
2022/09/29 17:17:21;;;;;;;5.23;3.33;;;8.00;96.30;;;;;;4973033;28;20953;-77
2022/09/29 17:19:47;;;;;;;33.33;25.20;;;8.00;96.30;;;;;;4972991;28;20253;-78
2022/09/29 17:22:33;;;;;;;10.27;9.27;;;8.00;96.30;;;;;;4955147;28;20517;-77
2022/09/29 17:24:59;;;;;;;10.50;8.47;;;7.90;96.30;;;;;;4987634;28;20460;-77
2022/09/29 17:30:19;;;;;;;7.23;4.70;;;7.80;96.30;;;;;;4992424;28;20963;-78
2022/09/29 17:32:45;;;;;;;8.27;4.07;;;7.70;96.30;;;;;;4992223;28;20389;-76
2022/09/29 17:35:13;;;;;;;10.93;3.67;;;7.70;96.30;;;;;;4992487;28;20461;-75
2022/09/29 17:37:39;;;;;;;3.13;2.77;;;7.60;96.30;;;;;;4975067;28;20420;-77
2022/09/29 17:40:29;;;;;;;3.20;2.70;;;7.60;96.30;;;;;;4985209;28;20425;-78
2022/09/29 17:42:57;;;;;;;7.53;6.57;;;7.60;96.30;;;;;;4972370;28;20527;-77
2022/09/29 17:45:24;;;;;;;5.03;4.53;;;7.50;96.30;;;;;;4972932;28;20441;-78
2022/09/29 17:47:50;;;;;;;4.43;3.90;;;7.50;96.30;;;;;;4972666;28;20436;-78
2022/09/29 17:50:44;;;;;;;9.60;8.03;;;7.50;96.30;;;;;;4973031;28;20406;-78
2022/09/29 17:53:13;;;;;;;29.20;19.53;;;7.70;96.30;;;;;;4951402;28;20214;-77
2022/09/29 17:55:40;;;;;;;6.53;3.07;;;7.80;96.30;;;;;;4955419;28;20949;-78
2022/09/29 17:58:06;;;;;;;3.53;2.23;;;7.90;96.30;;;;;;4954939;28;20434;-77
2022/09/29 18:00:37;;;;;;;2.10;1.90;;;7.90;96.30;;;;;;4955314;28;20528;-77
2022/09/29 18:03:03;;;;;;;3.90;2.70;;;7.90;96.30;;;;;;4954991;28;20285;-78
2022/09/29 18:05:31;;;;;;;4.30;3.23;;;7.80;96.30;;;;;;4975885;28;20412;-77
2022/09/29 18:07:57;;;;;;;5.20;3.93;;;7.80;96.30;;;;;;4958859;28;20427;-76
2022/09/29 18:10:48;;;;;;;4.90;3.70;;;7.70;96.30;;;;;;4981282;28;20612;-77
2022/09/29 18:13:13;;;;;;;5.23;4.07;;;7.70;96.30;;;;;;4995383;28;20193;-77
2022/09/29 18:15:39;;;;;;;5.70;3.37;;;7.60;96.30;;;;;;4995388;28;20416;-77
2022/09/29 18:18:06;;;;;;;10.83;4.00;;;7.60;96.30;;;;;;4994235;28;20177;-77
2022/09/29 18:20:34;;;;;;;6.73;5.03;;;7.50;96.30;;;;;;4995772;28;20174;-78
2022/09/29 18:23:01;;;;;;;8.20;6.30;;;7.30;96.30;;;;;;4995297;28;20526;-78
2022/09/29 18:25:29;;;;;;;11.00;8.13;;;7.20;96.30;;;;;;4978480;28;20408;-78
2022/09/29 18:27:54;;;;;;;5.90;3.80;;;7.10;96.30;;;;;;4995350;28;20415;-78
2022/09/29 18:30:25;;;;;;;4.33;3.77;;;7.00;96.30;;;;;;4995574;28;20499;-78
2022/09/29 18:32:54;;;;;;;8.77;5.57;;;6.90;96.30;;;;;;4995146;28;20208;-78
2022/09/29 18:35:23;;;;;;;8.50;5.80;;;6.80;96.30;;;;;;4995559;28;20607;-78
2022/09/29 18:37:50;;;;;;;11.10;8.70;;;6.80;96.30;;;;;;4982819;28;20918;-78
2022/09/29 18:40:17;;;;;;;13.33;9.50;;;6.70;96.30;;;;;;4975953;28;20410;-77
2022/09/29 18:42:45;;;;;;;13.47;7.67;;;6.70;96.30;;;;;;4975188;28;21230;-78
2022/09/29 18:45:13;;;;;;;5.13;4.57;;;6.70;96.30;;;;;;4975987;28;20952;-77
2022/09/29 18:47:41;;;;;;;3.60;3.30;;;6.70;96.30;;;;;;4983888;28;20501;-77
2022/09/29 18:50:13;;;;;;;2.97;2.03;;;6.70;96.30;;;;;;4985218;28;20413;-77
2022/09/29 18:52:39;;;;;;;3.60;2.13;;;6.70;96.30;;;;;;4978030;28;20402;-78
2022/09/29 18:55:05;;;;;;;2.13;1.93;;;6.80;96.30;;;;;;4980976;28;20448;-77
2022/09/29 18:57:31;;;;;;;2.40;2.10;;;6.80;96.30;;;;;;4978704;28;20184;-77
2022/09/29 18:59:57;;;;;;;6.53;4.30;;;6.80;96.30;;;;;;4985752;28;20421;-75
2022/09/29 19:02:24;;;;;;;4.67;4.13;;;6.90;96.30;;;;;;4977497;28;20284;-75
2022/09/29 19:04:51;;;;;;;15.57;10.53;;;6.90;96.30;;;;;;4995031;28;20604;-75
2022/09/29 19:07:18;;;;;;;11.63;8.47;;;6.90;96.30;;;;;;4995051;28;20460;-75
2022/09/29 19:09:44;;;;;;;5.13;3.97;;;6.90;96.30;;;;;;4977228;28;20492;-77
2022/09/29 19:12:10;;;;;;;7.40;6.60;;;6.90;96.30;;;;;;4994533;28;20504;-75
2022/09/29 19:14:36;;;;;;;10.17;8.50;;;6.80;96.30;;;;;;4994805;28;20194;-75
2022/09/29 19:17:02;;;;;;;9.80;7.87;;;6.80;96.30;;;;;;4987199;28;20425;-75
2022/09/29 19:19:28;;;;;;;10.37;9.37;;;6.70;96.30;;;;;;4975252;28;20413;-75
2022/09/29 19:21:53;;;;;;;7.83;7.13;;;6.70;96.30;;;;;;4974731;28;20445;-75
2022/09/29 19:24:21;;;;;;;5.10;4.60;;;6.70;96.30;;;;;;4957756;28;20194;-75
2022/09/29 19:26:46;;;;;;;7.03;6.33;;;6.70;96.30;;;;;;4975308;28;20214;-77
2022/09/29 19:29:12;;;;;;;7.73;6.23;;;6.60;96.30;;;;;;4975012;28;20410;-75
2022/09/29 19:31:37;;;;;;;6.00;5.37;;;6.60;96.30;;;;;;4974959;28;20689;-76
2022/09/29 19:34:03;;;;;;;5.97;5.37;;;6.60;96.30;;;;;;4957686;28;20195;-75
2022/09/29 19:36:29;;;;;;;9.90;6.90;;;6.60;96.30;;;;;;4991930;28;20182;-78
2022/09/29 19:38:54;;;;;;;11.40;7.17;;;6.50;96.30;;;;;;4994400;28;20166;-75
2022/09/29 19:41:23;;;;;;;10.60;7.50;;;6.50;96.30;;;;;;4976838;28;20177;-83
2022/09/29 19:43:49;;;;;;;6.20;5.60;;;6.40;96.30;;;;;;4993936;28;20209;-75
2022/09/29 19:46:15;;;;;;;4.70;4.30;;;6.50;96.30;;;;;;4994355;28;20499;-75
2022/09/29 19:48:42;;;;;;;8.90;5.20;;;6.50;96.30;;;;;;4994200;28;20170;-78
2022/09/29 19:54:09;;;;;;;5.40;4.90;;;6.50;96.30;;;;;;4994076;28;20530;-75
2022/09/29 19:56:40;;;;;;;11.30;6.20;;;6.50;96.30;;;;;;4994122;28;20395;-75
2022/09/29 19:59:06;;;;;;;7.93;6.10;;;6.50;96.30;;;;;;4994126;28;20420;-79
2022/09/29 20:01:31;;;;;;;3.50;3.20;;;6.50;96.30;;;;;;4993998;28;20510;-76
2022/09/29 20:03:57;;;;;;;3.90;3.23;;;6.50;96.30;;;;;;4993753;28;20207;-75
2022/09/29 20:06:22;;;;;;;3.77;3.30;;;6.60;96.30;;;;;;4994078;28;20170;-73
2022/09/29 20:08:48;;;;;;;4.30;2.83;;;6.60;96.30;;;;;;4986938;28;20641;-73
2022/09/29 20:11:13;;;;;;;9.17;3.40;;;6.70;96.30;;;;;;4957194;28;20171;-73
2022/09/29 20:13:39;;;;;;;3.63;2.83;;;6.70;96.30;;;;;;4974212;28;20198;-74
2022/09/29 20:16:06;;;;;;;4.47;3.07;;;6.70;96.30;;;;;;4974199;28;20881;-73
2022/09/29 20:18:35;;;;;;;32.87;16.93;;;6.70;96.30;;;;;;4974248;28;20512;-73
2022/09/29 20:21:06;;;;;;;21.10;14.00;;;6.70;96.30;;;;;;4986461;28;20190;-75
2022/09/29 20:23:31;;;;;;;14.20;6.80;;;6.90;96.30;;;;;;4975842;28;20478;-75
2022/09/29 20:26:01;;;;;;;12.63;8.70;;;7.00;96.30;;;;;;4954891;29;20419;-77
2022/09/29 20:28:26;;;;;;;17.40;14.27;;;7.10;96.30;;;;;;4953949;28;20741;-75
2022/09/29 20:30:57;;;;;;;27.17;15.27;;;7.30;96.30;;;;;;4954974;29;20423;-75
2022/09/29 20:33:24;;;;;;;22.00;16.57;;;7.30;96.30;;;;;;4968072;28;20201;-76
2022/09/29 20:35:49;;;;;;;13.00;10.60;;;7.40;96.30;;;;;;4976100;28;20428;-77
2022/09/29 20:38:15;;;;;;;16.27;9.37;;;7.40;96.30;;;;;;4993269;28;20528;-77
2022/09/29 20:40:40;;;;;;;17.30;9.90;;;7.40;96.30;;;;;;4976288;28;20192;-77
2022/09/29 20:43:06;;;;;;;18.57;9.17;;;7.40;96.30;;;;;;4984352;28;20292;-77
2022/09/29 20:45:31;;;;;;;6.57;3.40;;;7.30;96.30;;;;;;4973808;28;20220;-79
2022/09/29 20:47:57;;;;;;;5.20;4.50;;;7.30;96.30;;;;;;4973418;28;20232;-76
2022/09/29 20:50:22;;;;;;;8.40;5.40;;;7.30;96.30;;;;;;4973287;28;20620;-77
2022/09/29 20:52:48;;;;;;;5.20;3.77;;;7.20;96.30;;;;;;4955433;28;20181;-80
2022/09/29 20:55:13;;;;;;;3.50;2.87;;;7.20;96.30;;;;;;4972577;28;20182;-78
2022/09/29 20:57:39;;;;;;;5.47;3.63;;;7.10;96.30;;;;;;4973037;28;20178;-77
2022/09/29 21:00:07;;;;;;;3.57;2.70;;;7.10;96.30;;;;;;4955440;28;20910;-77
2022/09/29 21:02:33;;;;;;;4.50;2.90;;;7.10;96.30;;;;;;4955819;28;20201;-76
2022/09/29 21:04:58;;;;;;;5.70;3.60;;;7.00;96.30;;;;;;4956048;28;20499;-77
2022/09/29 21:07:37;;;;;;;4.27;3.17;;;7.00;96.30;;;;;;4973621;28;20693;-80
2022/09/29 21:10:03;;;;;;;5.50;3.00;;;6.90;96.30;;;;;;4973490;28;20147;-81
2022/09/29 21:12:30;;;;;;;4.60;3.10;;;6.90;96.30;;;;;;4973356;28;20413;-77
2022/09/29 21:14:56;;;;;;;5.13;3.43;;;6.80;96.30;;;;;;4973294;28;20438;-76
2022/09/29 21:17:22;;;;;;;3.73;3.10;;;6.70;96.30;;;;;;4955994;28;20824;-77
2022/09/29 21:19:47;;;;;;;3.77;3.30;;;6.60;96.30;;;;;;4973268;28;20177;-78
2022/09/29 21:22:13;;;;;;;3.40;2.90;;;6.60;96.30;;;;;;4973214;28;20305;-79
2022/09/29 21:24:40;;;;;;;4.90;3.10;;;6.60;96.30;;;;;;4973208;28;20310;-76
2022/09/29 21:27:06;;;;;;;3.73;2.90;;;6.50;96.30;;;;;;4973191;28;20266;-78
2022/09/29 21:29:32;;;;;;;5.23;3.60;;;6.50;96.30;;;;;;4955899;28;20429;-77
2022/09/29 21:31:57;;;;;;;8.80;3.40;;;6.50;96.30;;;;;;4973126;28;20514;-77
2022/09/29 21:34:23;;;;;;;6.33;3.03;;;6.50;96.30;;;;;;4973197;28;20194;-80
2022/09/29 21:36:49;;;;;;;5.50;4.03;;;6.50;96.30;;;;;;4973089;28;20635;-77
2022/09/29 21:39:15;;;;;;;6.30;3.10;;;6.60;96.30;;;;;;4974480;28;20166;-76
2022/09/29 21:41:42;;;;;;;6.80;3.50;;;6.60;96.30;;;;;;4977008;28;20180;-77
2022/09/29 21:44:17;;;;;;;4.43;3.60;;;6.50;96.30;;;;;;4959720;28;20445;-76
2022/09/29 21:46:44;;;;;;;3.87;3.47;;;6.50;96.30;;;;;;4977129;28;20893;-77
2022/09/29 21:49:11;;;;;;;5.00;3.47;;;6.50;96.30;;;;;;4977148;28;20994;-77
2022/09/29 21:51:39;;;;;;;7.70;2.80;;;6.50;96.30;;;;;;4959693;28;20964;-77
2022/09/29 21:54:09;;;;;;;4.07;3.17;;;6.50;96.30;;;;;;4976878;28;20914;-77
2022/09/29 21:56:39;;;;;;;4.53;3.50;;;6.50;96.30;;;;;;4959584;28;20430;-77
2022/09/29 21:59:05;;;;;;;6.93;3.10;;;6.50;96.30;;;;;;4959392;28;20481;-77
2022/09/29 22:01:30;;;;;;;3.73;3.20;;;6.50;96.30;;;;;;4976637;28;20441;-78
2022/09/29 22:03:57;;;;;;;3.50;2.57;;;6.40;96.30;;;;;;4976536;28;20838;-79
2022/09/29 22:06:25;;;;;;;5.10;3.40;;;6.40;96.30;;;;;;4976666;28;20166;-80
2022/09/29 22:08:51;;;;;;;6.57;3.40;;;6.40;96.30;;;;;;4976529;28;20401;-78
2022/09/29 22:11:20;;;;;;;3.93;3.37;;;6.40;96.30;;;;;;4976717;28;20484;-79
2022/09/29 22:13:50;;;;;;;8.83;4.00;;;6.40;96.30;;;;;;4959174;28;20441;-78
2022/09/29 22:16:17;;;;;;;7.30;3.83;;;6.40;96.30;;;;;;4976598;28;20817;-78
2022/09/29 22:18:43;;;;;;;4.83;3.97;;;6.40;96.30;;;;;;4976111;28;20425;-78
2022/09/29 22:21:12;;;;;;;4.27;3.50;;;6.40;96.30;;;;;;4976454;28;20416;-79
2022/09/29 22:23:37;;;;;;;5.53;3.70;;;6.40;96.30;;;;;;4958816;28;20213;-78